Time;durP1;ratioP1;P1;durP2;ratioP2;P2;SDS_P1;SDS_P2;PMS_P1;PMS_P2;Temp;Humidity;BMP_temperature;BMP_pressure;BME280_temperature;BME280_humidity;BME280_pressure;Samples;Min_cycle;Max_cycle;Signal;HPM_P1;HPM_P2
2021/12/01 00:02:36;;;;;;;;;;;;;;;;;;10444560;28;20106;-72
2021/12/01 00:07:39;;;;;;;0.30;0.30;;;;;;;;;;10439167;28;19921;-71
2021/12/01 00:12:43;;;;;;;2.40;0.73;;;;;;;;;;10446951;28;20416;-70
2021/12/01 00:17:46;;;;;;;0.30;0.17;;;;;;;;;;10440449;28;20454;-71
2021/12/01 00:22:49;;;;;;;0.20;0.20;;;;;;;;;;10444746;28;20321;-72
2021/12/01 00:27:54;;;;;;;0.20;0.10;;;;;;;;;;10436468;28;20056;-72
2021/12/01 00:32:57;;;;;;;0.10;0.10;;;;;;;;;;10438352;28;20081;-71
2021/12/01 00:37:59;;;;;;;0.10;0.10;;;;;;;;;;10441492;28;20487;-72
2021/12/01 00:43:04;;;;;;;0.10;0.10;;;;;;;;;;10446635;28;20368;-73
2021/12/01 00:48:07;;;;;;;0.00;0.00;;;;;;;;;;10442108;28;20084;-72
2021/12/01 00:53:11;;;;;;;0.20;0.10;;;;;;;;;;10444497;28;20087;-72
2021/12/01 00:58:16;;;;;;;0.10;0.10;;;;;;;;;;10441413;28;20041;-71
2021/12/01 01:03:19;;;;;;;0.10;0.10;;;;;;;;;;10443594;28;20033;-73
2021/12/01 01:08:23;;;;;;;0.10;0.05;;;;;;;;;;10438085;28;20473;-72
2021/12/01 01:18:49;;;;;;;0.20;0.13;;;;;;;;;;10439954;28;20045;-72
2021/12/01 01:23:52;;;;;;;0.10;0.10;;;;;;;;;;10444120;28;20044;-72
2021/12/01 01:28:57;;;;;;;0.70;0.28;;;;;;;;;;10436917;28;20471;-71
2021/12/01 01:33:59;;;;;;;;;;;;;;;;;;10445794;28;20157;-71
2021/12/01 01:39:03;;;;;;;0.10;0.10;;;;;;;;;;10440231;28;20364;-72
2021/12/01 01:44:07;;;;;;;0.20;0.20;;;;;;;;;;10445425;28;20033;-71
2021/12/01 01:49:13;;;;;;;;;;;;;;;;;;10436706;28;20480;-71
2021/12/01 01:54:16;;;;;;;0.10;0.10;;;;;;;;;;10433226;28;20300;-72
2021/12/01 01:59:20;;;;;;;0.00;0.00;;;;;;;;;;10441952;28;20079;-72
2021/12/01 02:04:23;;;;;;;0.10;0.10;;;;;;;;;;10438142;28;20138;-72
2021/12/01 02:09:26;;;;;;;0.15;0.15;;;;;;;;;;10437436;28;20044;-71
2021/12/01 02:14:32;;;;;;;0.10;0.10;;;;;;;;;;10435201;28;20041;-71
2021/12/01 02:19:40;;;;;;;0.10;0.10;;;;;;;;;;10439376;28;20049;-72
2021/12/01 02:24:47;;;;;;;0.30;0.20;;;;;;;;;;10432166;28;20056;-72
2021/12/01 02:29:51;;;;;;;0.30;0.20;;;;;;;;;;10438710;28;20067;-72
2021/12/01 02:35:13;;;;;;;0.38;0.10;;;;;;;;;;10440451;28;20404;-73
2021/12/01 02:40:18;;;;;;;1.33;0.08;;;;;;;;;;10440508;28;20041;-73
2021/12/01 02:45:21;;;;;;;;;;;;;;;;;;10438191;28;20468;-72
2021/12/01 02:50:23;;;;;;;0.00;0.00;;;;;;;;;;10441648;28;20392;-72
2021/12/01 02:55:29;;;;;;;1.30;0.00;;;;;;;;;;10436081;28;20473;-72
2021/12/01 03:00:31;;;;;;;0.00;0.00;;;;;;;;;;10444009;28;20420;-72
2021/12/01 03:05:34;;;;;;;0.17;0.10;;;;;;;;;;10439140;28;21322;-72
2021/12/01 03:10:38;;;;;;;0.00;0.00;;;;;;;;;;10435009;28;20494;-73
2021/12/01 03:15:41;;;;;;;0.05;0.00;;;;;;;;;;10441388;28;20044;-74
2021/12/01 03:20:45;;;;;;;0.20;0.10;;;;;;;;;;10437786;28;20047;-72
2021/12/01 03:25:49;;;;;;;0.05;0.05;;;;;;;;;;10433292;28;20210;-72
2021/12/01 03:30:52;;;;;;;0.00;0.00;;;;;;;;;;10438097;28;20040;-71
2021/12/01 03:35:55;;;;;;;0.10;0.10;;;;;;;;;;10445307;28;20045;-75
2021/12/01 03:40:59;;;;;;;0.20;0.10;;;;;;;;;;10447281;28;20083;-73
2021/12/01 03:46:02;;;;;;;0.10;0.10;;;;;;;;;;10444057;28;20469;-72
2021/12/01 03:51:05;;;;;;;0.05;0.00;;;;;;;;;;10448250;28;20504;-72
2021/12/01 03:56:09;;;;;;;0.10;0.10;;;;;;;;;;10444628;28;20090;-71
2021/12/01 04:01:12;;;;;;;;;;;;;;;;;;10449938;28;20040;-71
2021/12/01 04:06:15;;;;;;;0.00;0.00;;;;;;;;;;10449430;28;19967;-71
2021/12/01 04:11:19;;;;;;;0.28;0.20;;;;;;;;;;10444305;28;20174;-73
2021/12/01 04:16:22;;;;;;;0.15;0.15;;;;;;;;;;10445053;28;20045;-74
2021/12/01 04:21:45;;;;;;;0.10;0.10;;;;;;;;;;10446604;28;20060;-73
2021/12/01 04:26:49;;;;;;;0.52;0.38;;;;;;;;;;10439799;28;20112;-73
2021/12/01 04:31:52;;;;;;;0.68;0.20;;;;;;;;;;10448935;28;20047;-73
2021/12/01 04:36:55;;;;;;;1.55;0.75;;;;;;;;;;10445764;28;20420;-72
2021/12/01 04:42:04;;;;;;;0.30;0.28;;;;;;;;;;10448104;28;20033;-71
2021/12/01 04:47:09;;;;;;;0.73;0.22;;;;;;;;;;10444793;28;20471;-71
2021/12/01 04:52:13;;;;;;;1.48;0.45;;;;;;;;;;10445151;28;20037;-71
2021/12/01 04:57:17;;;;;;;0.10;0.10;;;;;;;;;;10446511;28;20409;-71
2021/12/01 05:02:19;;;;;;;;;;;;;;;;;;10450398;28;20128;-71
2021/12/01 05:07:23;;;;;;;0.20;0.20;;;;;;;;;;10443746;28;19928;-72
2021/12/01 05:12:27;;;;;;;0.10;0.10;;;;;;;;;;10445538;28;20051;-73
2021/12/01 05:17:30;;;;;;;0.28;0.20;;;;;;;;;;10446130;28;20053;-72
2021/12/01 05:22:33;;;;;;;0.45;0.17;;;;;;;;;;10438861;28;20539;-71
2021/12/01 05:27:37;;;;;;;0.32;0.20;;;;;;;;;;10441570;28;20044;-72
2021/12/01 05:32:40;;;;;;;0.20;0.20;;;;;;;;;;10438340;28;20733;-71
2021/12/01 05:37:43;;;;;;;0.20;0.20;;;;;;;;;;10438409;28;20540;-71
2021/12/01 05:42:47;;;;;;;0.20;0.20;;;;;;;;;;10441104;28;20385;-72
2021/12/01 05:47:50;;;;;;;;;;;;;;;;;;10440448;28;20088;-72
2021/12/01 05:52:52;;;;;;;0.22;0.22;;;;;;;;;;10440739;28;19928;-72
2021/12/01 05:57:57;;;;;;;0.30;0.30;;;;;;;;;;10440126;28;20104;-73
2021/12/01 06:02:59;;;;;;;0.20;0.20;;;;;;;;;;10433522;28;20130;-73
2021/12/01 06:08:02;;;;;;;0.28;0.28;;;;;;;;;;10441110;28;20140;-73
2021/12/01 06:13:07;;;;;;;0.45;0.32;;;;;;;;;;10441154;28;20040;-73
2021/12/01 06:18:09;;;;;;;;;;;;;;;;;;10442784;28;20103;-73
2021/12/01 06:23:13;;;;;;;0.90;0.25;;;;;;;;;;10438235;28;19947;-73
2021/12/01 06:28:16;;;;;;;;;;;;;;;;;;10443521;28;20041;-74
2021/12/01 06:33:20;;;;;;;0.57;0.47;;;;;;;;;;10440039;28;19921;-71
2021/12/01 06:38:23;;;;;;;;;;;;;;;;;;10443777;28;20063;-73
2021/12/01 06:43:26;;;;;;;1.17;0.40;;;;;;;;;;10441733;28;19995;-71
2021/12/01 06:48:30;;;;;;;2.75;0.95;;;;;;;;;;10438649;28;20049;-71
2021/12/01 06:53:32;;;;;;;;;;;;;;;;;;10440651;28;20061;-73
2021/12/01 06:58:35;;;;;;;1.13;0.60;;;;;;;;;;10438479;28;20319;-69
2021/12/01 07:03:40;;;;;;;0.73;0.32;;;;;;;;;;10439328;28;20147;-71
2021/12/01 07:08:42;;;;;;;;;;;;;;;;;;10429117;28;20079;-69
2021/12/01 07:13:45;;;;;;;0.82;0.30;;;;;;;;;;10445472;28;19999;-69
2021/12/01 07:18:50;;;;;;;0.73;0.50;;;;;;;;;;10444922;28;20133;-72
2021/12/01 07:23:52;;;;;;;1.10;0.43;;;;;;;;;;10445207;28;20040;-69
2021/12/01 07:28:55;;;;;;;1.08;0.55;;;;;;;;;;10447690;28;20044;-72
2021/12/01 07:34:00;;;;;;;0.73;0.65;;;;;;;;;;10446198;28;20115;-72
2021/12/01 07:39:02;;;;;;;;;;;;;;;;;;10451971;28;20056;-71
2021/12/01 07:44:05;;;;;;;0.45;0.45;;;;;;;;;;10478292;28;19927;-72
2021/12/01 07:49:09;;;;;;;0.70;0.30;;;;;;;;;;10444098;28;20463;-71
2021/12/01 07:54:13;;;;;;;1.95;0.50;;;;;;;;;;10446125;28;20594;-74
2021/12/01 07:59:16;;;;;;;0.90;0.63;;;;;;;;;;10448403;28;20054;-71
2021/12/01 08:04:20;;;;;;;0.60;0.52;;;;;;;;;;10445043;28;20045;-71
2021/12/01 08:09:23;;;;;;;;;;;;;;;;;;10443601;28;20048;-72
2021/12/01 08:14:26;;;;;;;1.80;0.60;;;;;;;;;;10444320;28;19971;-71
2021/12/01 08:19:30;;;;;;;1.23;0.38;;;;;;;;;;10438154;28;20615;-71
2021/12/01 08:24:32;;;;;;;;;;;;;;;;;;10435990;28;20115;-71
2021/12/01 08:29:35;;;;;;;0.65;0.30;;;;;;;;;;10435518;28;19931;-71
2021/12/01 08:34:39;;;;;;;0.30;0.30;;;;;;;;;;10444543;28;20041;-72
2021/12/01 08:39:42;;;;;;;;;;;;;;;;;;10446094;28;20090;-70
2021/12/01 08:44:46;;;;;;;1.52;0.68;;;;;;;;;;10420688;28;19932;-72
2021/12/01 08:49:50;;;;;;;0.47;0.35;;;;;;;;;;10435627;28;20044;-69
2021/12/01 08:54:52;;;;;;;;;;;;;;;;;;10427412;28;20051;-72
2021/12/01 08:59:55;;;;;;;0.80;0.80;;;;;;;;;;10466671;28;19982;-70
2021/12/01 09:04:59;;;;;;;1.88;0.82;;;;;;;;;;10444461;28;20519;-68
2021/12/01 09:10:02;;;;;;;0.70;0.70;;;;;;;;;;10445085;28;20492;-71
2021/12/01 09:15:06;;;;;;;1.60;1.10;;;;;;;;;;10439948;28;20136;-73
2021/12/01 09:20:08;;;;;;;;;;;;;;;;;;10446707;28;20048;-71
2021/12/01 09:25:12;;;;;;;1.27;0.90;;;;;;;;;;10436113;28;20583;-72
2021/12/01 09:30:16;;;;;;;0.80;0.80;;;;;;;;;;10438575;28;20182;-72
2021/12/01 09:35:18;;;;;;;;;;;;;;;;;;10443681;28;20497;-71
2021/12/01 09:40:23;;;;;;;0.50;0.50;;;;;;;;;;10440612;28;19935;-73
2021/12/01 09:45:26;;;;;;;0.52;0.50;;;;;;;;;;10446886;28;20630;-71
2021/12/01 09:50:29;;;;;;;1.95;0.80;;;;;;;;;;10466948;28;20118;-71
2021/12/01 09:55:35;;;;;;;0.52;0.50;;;;;;;;;;10452387;28;20629;-72
2021/12/01 10:00:39;;;;;;;0.68;0.60;;;;;;;;;;10444771;28;20045;-72
2021/12/01 10:05:53;;;;;;;2.53;0.38;;;;;;;;;;10444868;28;20037;-69
2021/12/01 10:10:58;;;;;;;0.57;0.52;;;;;;;;;;10438760;28;20099;-72
2021/12/01 10:16:02;;;;;;;0.85;0.50;;;;;;;;;;10439238;28;20044;-72
2021/12/01 10:21:06;;;;;;;0.60;0.30;;;;;;;;;;10440542;28;20068;-71
2021/12/01 10:26:13;;;;;;;0.82;0.50;;;;;;;;;;10437844;28;20056;-70
2021/12/01 10:31:16;;;;;;;1.98;0.40;;;;;;;;;;10438286;28;20053;-72
2021/12/01 10:36:19;;;;;;;0.20;0.20;;;;;;;;;;10439896;28;20039;-73
2021/12/01 10:41:34;;;;;;;0.40;0.40;;;;;;;;;;10436036;28;20048;-70
2021/12/01 10:46:43;;;;;;;0.85;0.40;;;;;;;;;;10447074;28;20051;-71
2021/12/01 10:51:46;;;;;;;0.38;0.30;;;;;;;;;;10446140;28;20127;-70
2021/12/01 10:57:11;;;;;;;1.27;0.55;;;;;;;;;;10448825;28;20079;-71
2021/12/01 11:02:15;;;;;;;0.43;0.43;;;;;;;;;;10449478;28;20107;-69
2021/12/01 11:07:28;;;;;;;0.35;0.35;;;;;;;;;;10451060;28;20114;-72
2021/12/01 11:12:32;;;;;;;0.20;0.20;;;;;;;;;;10441155;28;20058;-71
2021/12/01 11:17:56;;;;;;;0.22;0.22;;;;;;;;;;10422462;28;20041;-70
2021/12/01 11:23:07;;;;;;;0.75;0.63;;;;;;;;;;10421725;28;20046;-71
2021/12/01 11:28:13;;;;;;;0.40;0.40;;;;;;;;;;10431239;28;20040;-71
2021/12/01 11:33:18;;;;;;;1.20;0.28;;;;;;;;;;10432368;28;20122;-71
2021/12/01 11:38:21;;;;;;;0.10;0.10;;;;;;;;;;10422144;28;20037;-71
2021/12/01 11:43:28;;;;;;;0.40;0.20;;;;;;;;;;10440616;28;20063;-69
2021/12/01 11:48:32;;;;;;;0.32;0.30;;;;;;;;;;10437412;28;20379;-70
2021/12/01 11:53:37;;;;;;;0.70;0.50;;;;;;;;;;10441343;28;20527;-71
2021/12/01 11:58:50;;;;;;;5.53;0.50;;;;;;;;;;10476968;28;20111;-71
2021/12/01 12:04:15;;;;;;;2.08;0.40;;;;;;;;;;10441106;28;20037;-71
2021/12/01 12:09:18;;;;;;;0.30;0.22;;;;;;;;;;10452795;28;20087;-70
2021/12/01 12:14:24;;;;;;;0.47;0.47;;;;;;;;;;10447053;28;20045;-72
2021/12/01 12:19:42;;;;;;;0.28;0.28;;;;;;;;;;10436368;28;20063;-73
2021/12/01 12:24:50;;;;;;;0.30;0.30;;;;;;;;;;10439099;28;20103;-69
2021/12/01 12:29:55;;;;;;;1.88;0.30;;;;;;;;;;10438312;28;20040;-72
2021/12/01 12:35:00;;;;;;;0.28;0.28;;;;;;;;;;10431105;28;20163;-70
2021/12/01 12:40:05;;;;;;;2.15;0.45;;;;;;;;;;10442730;28;20041;-71
2021/12/01 12:45:25;;;;;;;1.98;0.35;;;;;;;;;;10443437;28;20471;-71
2021/12/01 12:50:28;;;;;;;0.20;0.20;;;;;;;;;;10440866;28;20045;-70
2021/12/01 12:55:51;;;;;;;0.30;0.30;;;;;;;;;;10438347;28;20128;-69
2021/12/01 13:00:56;;;;;;;0.60;0.35;;;;;;;;;;10437713;28;20129;-69
2021/12/01 13:06:01;;;;;;;0.65;0.52;;;;;;;;;;10438178;28;20029;-71
2021/12/01 13:11:05;;;;;;;0.95;0.50;;;;;;;;;;10440217;28;20144;-72
2021/12/01 13:16:10;;;;;;;0.22;0.22;;;;;;;;;;10441298;28;20045;-72
2021/12/01 13:21:14;;;;;;;0.20;0.20;;;;;;;;;;10433770;28;20099;-71
2021/12/01 13:26:18;;;;;;;0.15;0.15;;;;;;;;;;10429381;28;20089;-70
2021/12/01 13:31:24;;;;;;;0.45;0.40;;;;;;;;;;10438546;28;20051;-72
2021/12/01 13:36:31;;;;;;;1.10;0.40;;;;;;;;;;10438833;28;20069;-72
2021/12/01 13:41:35;;;;;;;0.30;0.30;;;;;;;;;;10454777;28;20040;-69
2021/12/01 13:46:39;;;;;;;0.20;0.10;;;;;;;;;;10439893;28;20045;-71
2021/12/01 13:51:43;;;;;;;0.15;0.15;;;;;;;;;;10442299;28;20052;-71
2021/12/01 13:56:50;;;;;;;0.43;0.40;;;;;;;;;;10428832;28;20104;-72
2021/12/01 14:01:55;;;;;;;0.28;0.28;;;;;;;;;;10437173;28;20041;-72
2021/12/01 14:06:58;;;;;;;0.47;0.47;;;;;;;;;;10440661;28;20041;-72
2021/12/01 14:12:02;;;;;;;0.77;0.47;;;;;;;;;;10438466;28;20076;-72
2021/12/01 14:17:06;;;;;;;0.10;0.10;;;;;;;;;;10438220;28;20025;-69
2021/12/01 14:22:08;;;;;;;;;;;;;;;;;;10438958;28;20509;-70
2021/12/01 14:27:11;;;;;;;0.47;0.40;;;;;;;;;;10435754;28;20033;-72
2021/12/01 14:32:16;;;;;;;0.77;0.40;;;;;;;;;;10437058;28;20137;-70
2021/12/01 14:37:20;;;;;;;1.10;0.40;;;;;;;;;;10442311;28;20037;-68
2021/12/01 14:42:23;;;;;;;1.23;0.40;;;;;;;;;;10438000;28;20106;-70
2021/12/01 14:47:27;;;;;;;1.40;0.20;;;;;;;;;;10436858;28;20707;-73
2021/12/01 14:52:34;;;;;;;0.17;0.10;;;;;;;;;;10439283;28;20114;-72
2021/12/01 14:57:46;;;;;;;0.38;0.10;;;;;;;;;;10423699;28;20037;-68
2021/12/01 15:02:50;;;;;;;0.30;0.30;;;;;;;;;;10419722;28;20087;-70
2021/12/01 15:08:07;;;;;;;0.20;0.20;;;;;;;;;;10416126;28;20041;-70
2021/12/01 15:13:12;;;;;;;0.30;0.30;;;;;;;;;;10419261;28;20045;-69
2021/12/01 15:18:24;;;;;;;1.23;0.47;;;;;;;;;;10429279;28;20052;-71
2021/12/01 15:23:29;;;;;;;0.45;0.40;;;;;;;;;;10432823;28;20544;-71
2021/12/01 15:28:32;;;;;;;0.22;0.17;;;;;;;;;;10435150;28;20049;-69
2021/12/01 15:33:36;;;;;;;0.80;0.22;;;;;;;;;;10441347;28;20045;-70
2021/12/01 15:38:39;;;;;;;1.23;0.30;;;;;;;;;;10442762;28;20072;-72
2021/12/01 15:43:42;;;;;;;0.90;0.40;;;;;;;;;;10434693;28;20044;-70
2021/12/01 15:49:05;;;;;;;1.73;0.50;;;;;;;;;;10432642;28;20064;-72
2021/12/01 15:54:08;;;;;;;0.82;0.43;;;;;;;;;;10436948;28;20076;-72
2021/12/01 15:59:10;;;;;;;1.23;0.38;;;;;;;;;;10442660;28;20045;-70
2021/12/01 16:04:16;;;;;;;1.42;0.60;;;;;;;;;;10443060;28;20053;-71
2021/12/01 16:09:21;;;;;;;0.30;0.30;;;;;;;;;;10445867;28;20041;-70
2021/12/01 16:14:24;;;;;;;1.05;0.50;;;;;;;;;;10435960;28;20040;-72
2021/12/01 16:19:30;;;;;;;0.70;0.70;;;;;;;;;;10440633;28;20095;-69
2021/12/01 16:24:32;;;;;;;;;;;;;;;;;;10442429;28;20409;-70
2021/12/01 16:29:37;;;;;;;0.60;0.47;;;;;;;;;;10444361;28;19978;-74
2021/12/01 16:34:41;;;;;;;0.35;0.20;;;;;;;;;;10439773;28;20069;-72
2021/12/01 16:39:44;;;;;;;0.28;0.20;;;;;;;;;;10445955;28;20737;-71
2021/12/01 16:44:47;;;;;;;2.78;0.40;;;;;;;;;;10428140;28;20040;-72
2021/12/01 16:49:51;;;;;;;0.32;0.32;;;;;;;;;;10428315;28;20075;-71
2021/12/01 16:54:54;;;;;;;0.63;0.45;;;;;;;;;;10423605;28;20445;-71
2021/12/01 16:59:57;;;;;;;0.22;0.22;;;;;;;;;;10425100;28;20160;-71
2021/12/01 17:05:05;;;;;;;1.55;0.50;;;;;;;;;;10425301;28;20140;-73
2021/12/01 17:10:08;;;;;;;0.95;0.50;;;;;;;;;;10432959;28;20068;-72
2021/12/01 17:15:12;;;;;;;0.88;0.52;;;;;;;;;;10453394;28;20037;-71
2021/12/01 17:20:36;;;;;;;0.37;0.30;;;;;;;;;;10440018;28;20536;-73
2021/12/01 17:25:42;;;;;;;0.30;0.30;;;;;;;;;;10436538;28;20051;-73
2021/12/01 17:31:08;;;;;;;0.40;0.40;;;;;;;;;;10432011;28;20068;-69
2021/12/01 17:36:13;;;;;;;0.57;0.35;;;;;;;;;;10439131;28;20041;-74
2021/12/01 17:41:16;;;;;;;0.60;0.43;;;;;;;;;;10435737;28;20040;-71
2021/12/01 17:46:38;;;;;;;1.35;0.90;;;;;;;;;;10442230;28;20120;-74
2021/12/01 17:52:03;;;;;;;0.22;0.22;;;;;;;;;;10440674;28;20373;-71
2021/12/01 17:57:26;;;;;;;0.28;0.25;;;;;;;;;;10438136;28;20697;-72
2021/12/01 18:02:49;;;;;;;0.88;0.80;;;;;;;;;;10440282;28;20139;-72
2021/12/01 18:08:14;;;;;;;1.77;0.60;;;;;;;;;;10443370;28;20110;-72
2021/12/01 18:13:17;;;;;;;1.00;0.77;;;;;;;;;;10437686;28;20513;-71
2021/12/01 18:18:21;;;;;;;0.70;0.70;;;;;;;;;;10439345;28;20111;-70
2021/12/01 18:23:25;;;;;;;1.65;0.90;;;;;;;;;;10433314;28;20078;-69
2021/12/01 18:28:28;;;;;;;;;;;;;;;;;;10434024;28;20065;-71
2021/12/01 18:33:31;;;;;;;0.77;0.75;;;;;;;;;;10427525;28;19982;-72
2021/12/01 18:38:35;;;;;;;0.63;0.47;;;;;;;;;;10467979;28;20041;-71
2021/12/01 18:43:38;;;;;;;0.73;0.73;;;;;;;;;;10424201;28;20049;-71
2021/12/01 18:48:41;;;;;;;1.10;0.88;;;;;;;;;;10429852;28;20045;-70
2021/12/01 18:53:45;;;;;;;1.58;0.85;;;;;;;;;;10435629;28;20060;-71
2021/12/01 18:58:50;;;;;;;5.00;0.70;;;;;;;;;;10440073;28;20394;-71
2021/12/01 19:03:53;;;;;;;1.27;0.93;;;;;;;;;;10431882;28;20427;-72
2021/12/01 19:08:57;;;;;;;1.97;0.90;;;;;;;;;;10440321;28;20049;-73
2021/12/01 19:14:00;;;;;;;;;;;;;;;;;;10442940;28;20069;-69
2021/12/01 19:19:03;;;;;;;2.63;1.10;;;;;;;;;;10447690;28;19942;-71
2021/12/01 19:24:08;;;;;;;3.58;0.80;;;;;;;;;;10449381;28;20072;-71
2021/12/01 19:29:11;;;;;;;1.10;0.90;;;;;;;;;;10444948;28;20040;-71
2021/12/01 19:34:14;;;;;;;2.30;1.08;;;;;;;;;;10446898;28;20041;-71
2021/12/01 19:39:18;;;;;;;1.50;0.90;;;;;;;;;;10425200;28;20555;-70
2021/12/01 19:44:20;;;;;;;;;;;;;;;;;;10440343;28;20120;-72
2021/12/01 19:49:24;;;;;;;1.80;0.98;;;;;;;;;;10439894;28;19931;-71
2021/12/01 19:54:28;;;;;;;1.50;1.10;;;;;;;;;;10430321;28;20110;-70
2021/12/01 19:59:32;;;;;;;1.05;0.65;;;;;;;;;;10436559;28;20088;-73
2021/12/01 20:04:35;;;;;;;0.85;0.60;;;;;;;;;;10434419;28;20056;-72
2021/12/01 20:09:40;;;;;;;1.95;1.23;;;;;;;;;;10437877;28;20274;-73
2021/12/01 20:14:44;;;;;;;1.50;0.90;;;;;;;;;;10438004;28;20126;-73
2021/12/01 20:19:47;;;;;;;0.97;0.80;;;;;;;;;;10431043;28;20112;-71
2021/12/01 20:24:53;;;;;;;3.17;1.13;;;;;;;;;;10440727;28;20101;-72
2021/12/01 20:29:56;;;;;;;0.43;0.43;;;;;;;;;;10433293;28;20128;-70
2021/12/01 20:34:58;;;;;;;1.50;0.85;;;;;;;;;;10441937;28;20090;-70
2021/12/01 20:40:05;;;;;;;1.33;0.90;;;;;;;;;;10443009;28;20071;-73
2021/12/01 20:45:11;;;;;;;2.17;1.42;;;;;;;;;;10440024;28;20037;-73
2021/12/01 20:56:02;;;;;;;1.42;1.00;;;;;;;;;;10457417;28;20516;-73
2021/12/01 21:01:25;;;;;;;1.17;0.73;;;;;;;;;;10440567;28;20583;-71
2021/12/01 21:06:29;;;;;;;1.38;0.90;;;;;;;;;;10432735;28;20045;-71
2021/12/01 21:11:35;;;;;;;;;;;;;;;;;;10443285;28;20087;-71
2021/12/01 21:16:43;;;;;;;0.52;0.47;;;;;;;;;;10442790;28;20004;-69
2021/12/01 21:21:47;;;;;;;2.38;0.95;;;;;;;;;;10429502;28;20473;-71
2021/12/01 21:26:50;;;;;;;0.70;0.63;;;;;;;;;;10421271;28;20750;-74
2021/12/01 21:31:56;;;;;;;1.15;0.60;;;;;;;;;;10421576;28;20045;-71
2021/12/01 21:36:59;;;;;;;0.60;0.60;;;;;;;;;;10431250;28;20093;-70
2021/12/01 21:42:02;;;;;;;3.90;1.42;;;;;;;;;;10427076;28;20053;-72
2021/12/01 21:47:07;;;;;;;1.63;0.77;;;;;;;;;;10440774;28;20421;-72
2021/12/01 21:52:12;;;;;;;3.35;0.77;;;;;;;;;;10441176;28;20045;-70
2021/12/01 21:57:17;;;;;;;1.25;0.70;;;;;;;;;;10439472;28;20045;-70
2021/12/01 22:02:23;;;;;;;1.48;0.88;;;;;;;;;;10439200;28;20037;-70
2021/12/01 22:07:27;;;;;;;0.95;0.85;;;;;;;;;;10441604;28;20037;-70
2021/12/01 22:12:29;;;;;;;1.17;0.40;;;;;;;;;;10440567;28;20068;-72
2021/12/01 22:17:34;;;;;;;0.55;0.50;;;;;;;;;;10438195;28;20431;-72
2021/12/01 22:22:39;;;;;;;1.73;1.10;;;;;;;;;;10437059;28;20566;-70
2021/12/01 22:27:42;;;;;;;1.10;1.00;;;;;;;;;;10442754;28;20029;-70
2021/12/01 22:32:47;;;;;;;0.65;0.65;;;;;;;;;;10438869;28;20110;-72
2021/12/01 22:37:51;;;;;;;0.57;0.50;;;;;;;;;;10441487;28;20041;-70
2021/12/01 22:42:55;;;;;;;1.58;0.65;;;;;;;;;;10441655;28;20072;-71
2021/12/01 22:48:00;;;;;;;1.17;0.88;;;;;;;;;;10445114;28;20090;-71
2021/12/01 22:53:03;;;;;;;0.70;0.60;;;;;;;;;;10445140;28;20061;-71
2021/12/01 22:58:08;;;;;;;0.40;0.40;;;;;;;;;;10449231;28;20029;-70
2021/12/01 23:03:15;;;;;;;0.88;0.80;;;;;;;;;;10445756;28;20120;-70
2021/12/01 23:08:19;;;;;;;0.95;0.47;;;;;;;;;;10447934;28;20098;-73
2021/12/01 23:13:23;;;;;;;1.33;0.70;;;;;;;;;;10443573;28;20520;-69
2021/12/01 23:18:27;;;;;;;1.73;0.90;;;;;;;;;;10448913;28;20048;-71
2021/12/01 23:29:02;;;;;;;1.08;0.73;;;;;;;;;;10371703;28;20053;-71
2021/12/01 23:34:06;;;;;;;1.00;0.70;;;;;;;;;;10444489;28;20045;-69
2021/12/01 23:39:09;;;;;;;;;;;;;;;;;;10449397;28;20071;-72
2021/12/01 23:44:15;;;;;;;1.92;0.70;;;;;;;;;;10441242;28;19928;-71
2021/12/01 23:54:51;;;;;;;1.30;0.60;;;;;;;;;;10439536;28;20033;-69
2021/12/01 23:59:55;;;;;;;1.65;0.60;;;;;;;;;;10447925;28;20041;-69
